sensor_id;sensor_type;location;lat;lon;timestamp;P1;durP1;ratioP1;P2;durP2;ratioP2
19388;SDS011;9830;41.876;23.474;2023-07-30T00:01:41;0.40;;;0.40;;
19388;SDS011;9830;41.876;23.474;2023-07-30T00:04:06;0.63;;;0.63;;
19388;SDS011;9830;41.876;23.474;2023-07-30T00:06:32;0.30;;;0.30;;
19388;SDS011;9830;41.876;23.474;2023-07-30T00:08:58;0.10;;;0.10;;
19388;SDS011;9830;41.876;23.474;2023-07-30T00:11:23;0.30;;;0.30;;
19388;SDS011;9830;41.876;23.474;2023-07-30T00:13:49;0.50;;;0.50;;
19388;SDS011;9830;41.876;23.474;2023-07-30T00:16:15;0.60;;;0.60;;
19388;SDS011;9830;41.876;23.474;2023-07-30T00:18:40;0.23;;;0.23;;
19388;SDS011;9830;41.876;23.474;2023-07-30T00:21:06;0.30;;;0.30;;
19388;SDS011;9830;41.876;23.474;2023-07-30T00:23:31;0.00;;;0.00;;
19388;SDS011;9830;41.876;23.474;2023-07-30T00:25:57;0.30;;;0.30;;
19388;SDS011;9830;41.876;23.474;2023-07-30T00:28:23;0.40;;;0.40;;
19388;SDS011;9830;41.876;23.474;2023-07-30T00:30:48;0.30;;;0.23;;
19388;SDS011;9830;41.876;23.474;2023-07-30T00:33:14;0.87;;;0.63;;
19388;SDS011;9830;41.876;23.474;2023-07-30T00:35:39;0.30;;;0.30;;
19388;SDS011;9830;41.876;23.474;2023-07-30T00:38:05;1.17;;;1.10;;
19388;SDS011;9830;41.876;23.474;2023-07-30T00:40:31;0.37;;;0.37;;
19388;SDS011;9830;41.876;23.474;2023-07-30T00:42:56;24.83;;;1.90;;
19388;SDS011;9830;41.876;23.474;2023-07-30T00:45:22;1.07;;;1.07;;
19388;SDS011;9830;41.876;23.474;2023-07-30T00:47:48;0.30;;;0.30;;
19388;SDS011;9830;41.876;23.474;2023-07-30T00:50:14;0.20;;;0.20;;
19388;SDS011;9830;41.876;23.474;2023-07-30T00:52:42;0.87;;;0.87;;
19388;SDS011;9830;41.876;23.474;2023-07-30T00:55:08;0.73;;;0.57;;
19388;SDS011;9830;41.876;23.474;2023-07-30T00:57:35;0.20;;;0.20;;
19388;SDS011;9830;41.876;23.474;2023-07-30T01:00:02;1.40;;;0.83;;
19388;SDS011;9830;41.876;23.474;2023-07-30T01:02:31;0.10;;;0.10;;
19388;SDS011;9830;41.876;23.474;2023-07-30T01:04:57;0.23;;;0.23;;
19388;SDS011;9830;41.876;23.474;2023-07-30T01:07:25;0.47;;;0.47;;
19388;SDS011;9830;41.876;23.474;2023-07-30T01:09:50;0.30;;;0.30;;
19388;SDS011;9830;41.876;23.474;2023-07-30T01:12:17;0.30;;;0.30;;
19388;SDS011;9830;41.876;23.474;2023-07-30T01:14:43;0.30;;;0.30;;
19388;SDS011;9830;41.876;23.474;2023-07-30T01:17:10;0.20;;;0.20;;
19388;SDS011;9830;41.876;23.474;2023-07-30T01:19:36;0.20;;;0.20;;
19388;SDS011;9830;41.876;23.474;2023-07-30T01:22:02;0.50;;;0.50;;
19388;SDS011;9830;41.876;23.474;2023-07-30T01:24:28;1.00;;;0.87;;
19388;SDS011;9830;41.876;23.474;2023-07-30T01:27:07;0.10;;;0.10;;
19388;SDS011;9830;41.876;23.474;2023-07-30T01:29:42;0.47;;;0.47;;
19388;SDS011;9830;41.876;23.474;2023-07-30T01:32:13;0.20;;;0.10;;
19388;SDS011;9830;41.876;23.474;2023-07-30T01:34:40;1.67;;;0.53;;
19388;SDS011;9830;41.876;23.474;2023-07-30T01:37:12;0.10;;;0.10;;
19388;SDS011;9830;41.876;23.474;2023-07-30T01:39:40;3.60;;;0.93;;
19388;SDS011;9830;41.876;23.474;2023-07-30T01:42:07;0.30;;;0.30;;
19388;SDS011;9830;41.876;23.474;2023-07-30T01:44:33;10.70;;;1.03;;
19388;SDS011;9830;41.876;23.474;2023-07-30T01:46:58;0.30;;;0.30;;
19388;SDS011;9830;41.876;23.474;2023-07-30T01:49:24;0.10;;;0.10;;
19388;SDS011;9830;41.876;23.474;2023-07-30T01:51:50;0.30;;;0.20;;
19388;SDS011;9830;41.876;23.474;2023-07-30T01:54:15;0.50;;;0.50;;
19388;SDS011;9830;41.876;23.474;2023-07-30T01:56:41;0.53;;;0.53;;
19388;SDS011;9830;41.876;23.474;2023-07-30T01:59:07;1.77;;;0.80;;
19388;SDS011;9830;41.876;23.474;2023-07-30T02:01:32;0.53;;;0.53;;
19388;SDS011;9830;41.876;23.474;2023-07-30T02:03:58;0.50;;;0.50;;
19388;SDS011;9830;41.876;23.474;2023-07-30T02:06:23;0.30;;;0.30;;
19388;SDS011;9830;41.876;23.474;2023-07-30T02:08:49;0.20;;;0.20;;
19388;SDS011;9830;41.876;23.474;2023-07-30T02:11:15;0.07;;;0.07;;
19388;SDS011;9830;41.876;23.474;2023-07-30T02:13:40;0.53;;;0.53;;
19388;SDS011;9830;41.876;23.474;2023-07-30T02:16:07;0.53;;;0.37;;
19388;SDS011;9830;41.876;23.474;2023-07-30T02:18:33;0.10;;;0.10;;
19388;SDS011;9830;41.876;23.474;2023-07-30T02:20:58;0.40;;;0.40;;
19388;SDS011;9830;41.876;23.474;2023-07-30T02:23:24;0.10;;;0.10;;
19388;SDS011;9830;41.876;23.474;2023-07-30T02:25:50;0.37;;;0.37;;
19388;SDS011;9830;41.876;23.474;2023-07-30T02:28:16;0.57;;;0.57;;
19388;SDS011;9830;41.876;23.474;2023-07-30T02:30:41;0.40;;;0.40;;
19388;SDS011;9830;41.876;23.474;2023-07-30T02:33:07;0.23;;;0.23;;
19388;SDS011;9830;41.876;23.474;2023-07-30T02:35:33;0.70;;;0.70;;
19388;SDS011;9830;41.876;23.474;2023-07-30T02:37:58;0.40;;;0.30;;
19388;SDS011;9830;41.876;23.474;2023-07-30T02:40:24;0.40;;;0.40;;
19388;SDS011;9830;41.876;23.474;2023-07-30T02:42:50;0.53;;;0.53;;
19388;SDS011;9830;41.876;23.474;2023-07-30T02:45:15;0.50;;;0.50;;
19388;SDS011;9830;41.876;23.474;2023-07-30T02:47:41;0.57;;;0.57;;
19388;SDS011;9830;41.876;23.474;2023-07-30T02:50:07;0.43;;;0.43;;
19388;SDS011;9830;41.876;23.474;2023-07-30T02:52:33;7.73;;;1.20;;
19388;SDS011;9830;41.876;23.474;2023-07-30T02:54:59;0.80;;;0.57;;
19388;SDS011;9830;41.876;23.474;2023-07-30T02:57:25;0.20;;;0.20;;
19388;SDS011;9830;41.876;23.474;2023-07-30T02:59:50;0.33;;;0.27;;
19388;SDS011;9830;41.876;23.474;2023-07-30T03:02:16;0.53;;;0.53;;
19388;SDS011;9830;41.876;23.474;2023-07-30T03:04:42;0.20;;;0.20;;
19388;SDS011;9830;41.876;23.474;2023-07-30T03:07:08;0.67;;;0.67;;
19388;SDS011;9830;41.876;23.474;2023-07-30T03:09:34;0.03;;;0.03;;
19388;SDS011;9830;41.876;23.474;2023-07-30T03:12:00;0.60;;;0.60;;
19388;SDS011;9830;41.876;23.474;2023-07-30T03:14:26;0.10;;;0.10;;
19388;SDS011;9830;41.876;23.474;2023-07-30T03:16:51;0.43;;;0.43;;
19388;SDS011;9830;41.876;23.474;2023-07-30T03:19:17;0.70;;;0.70;;
19388;SDS011;9830;41.876;23.474;2023-07-30T03:21:43;0.27;;;0.27;;
19388;SDS011;9830;41.876;23.474;2023-07-30T03:24:09;0.20;;;0.20;;
19388;SDS011;9830;41.876;23.474;2023-07-30T03:26:34;0.50;;;0.50;;
19388;SDS011;9830;41.876;23.474;2023-07-30T03:29:00;0.83;;;0.47;;
19388;SDS011;9830;41.876;23.474;2023-07-30T03:31:25;2.00;;;1.07;;
19388;SDS011;9830;41.876;23.474;2023-07-30T03:33:53;0.20;;;0.20;;
19388;SDS011;9830;41.876;23.474;2023-07-30T03:36:19;0.20;;;0.20;;
19388;SDS011;9830;41.876;23.474;2023-07-30T03:38:44;0.33;;;0.33;;
19388;SDS011;9830;41.876;23.474;2023-07-30T03:41:10;0.40;;;0.40;;
19388;SDS011;9830;41.876;23.474;2023-07-30T03:43:36;0.73;;;0.73;;
19388;SDS011;9830;41.876;23.474;2023-07-30T03:46:02;0.33;;;0.33;;
19388;SDS011;9830;41.876;23.474;2023-07-30T03:48:28;1.23;;;0.40;;
19388;SDS011;9830;41.876;23.474;2023-07-30T03:50:54;5.43;;;1.23;;
19388;SDS011;9830;41.876;23.474;2023-07-30T03:53:20;0.50;;;0.30;;
19388;SDS011;9830;41.876;23.474;2023-07-30T03:55:46;0.33;;;0.33;;
19388;SDS011;9830;41.876;23.474;2023-07-30T03:58:12;0.10;;;0.10;;
19388;SDS011;9830;41.876;23.474;2023-07-30T04:00:38;0.17;;;0.17;;
19388;SDS011;9830;41.876;23.474;2023-07-30T04:03:04;1.07;;;0.50;;
19388;SDS011;9830;41.876;23.474;2023-07-30T04:05:29;0.40;;;0.40;;
19388;SDS011;9830;41.876;23.474;2023-07-30T04:07:55;1.03;;;0.47;;
19388;SDS011;9830;41.876;23.474;2023-07-30T04:10:21;0.80;;;0.80;;
19388;SDS011;9830;41.876;23.474;2023-07-30T04:12:47;0.30;;;0.30;;
19388;SDS011;9830;41.876;23.474;2023-07-30T04:15:14;0.67;;;0.67;;
19388;SDS011;9830;41.876;23.474;2023-07-30T04:17:40;0.73;;;0.73;;
19388;SDS011;9830;41.876;23.474;2023-07-30T04:20:05;0.53;;;0.53;;
19388;SDS011;9830;41.876;23.474;2023-07-30T04:22:31;0.97;;;0.97;;
19388;SDS011;9830;41.876;23.474;2023-07-30T04:24:57;0.17;;;0.17;;
19388;SDS011;9830;41.876;23.474;2023-07-30T04:27:23;1.25;;;1.15;;
19388;SDS011;9830;41.876;23.474;2023-07-30T04:29:48;2.03;;;1.83;;
19388;SDS011;9830;41.876;23.474;2023-07-30T04:32:14;3.00;;;1.30;;
19388;SDS011;9830;41.876;23.474;2023-07-30T04:34:40;1.20;;;1.20;;
19388;SDS011;9830;41.876;23.474;2023-07-30T04:37:06;1.10;;;0.85;;
19388;SDS011;9830;41.876;23.474;2023-07-30T04:39:32;0.60;;;0.60;;
19388;SDS011;9830;41.876;23.474;2023-07-30T04:41:58;1.30;;;0.97;;
19388;SDS011;9830;41.876;23.474;2023-07-30T04:44:23;0.50;;;0.50;;
19388;SDS011;9830;41.876;23.474;2023-07-30T04:46:49;1.03;;;0.90;;
19388;SDS011;9830;41.876;23.474;2023-07-30T04:49:15;0.87;;;0.83;;
19388;SDS011;9830;41.876;23.474;2023-07-30T04:51:40;1.20;;;1.15;;
19388;SDS011;9830;41.876;23.474;2023-07-30T04:54:06;0.90;;;0.88;;
19388;SDS011;9830;41.876;23.474;2023-07-30T04:56:32;0.77;;;0.77;;
19388;SDS011;9830;41.876;23.474;2023-07-30T04:58:57;3.70;;;2.05;;
19388;SDS011;9830;41.876;23.474;2023-07-30T05:01:24;0.90;;;0.90;;
19388;SDS011;9830;41.876;23.474;2023-07-30T05:03:50;2.33;;;2.13;;
19388;SDS011;9830;41.876;23.474;2023-07-30T05:06:15;2.15;;;1.92;;
19388;SDS011;9830;41.876;23.474;2023-07-30T05:08:41;2.15;;;1.75;;
19388;SDS011;9830;41.876;23.474;2023-07-30T05:11:07;1.73;;;1.55;;
19388;SDS011;9830;41.876;23.474;2023-07-30T05:13:33;1.55;;;1.50;;
19388;SDS011;9830;41.876;23.474;2023-07-30T05:15:58;2.90;;;2.60;;
19388;SDS011;9830;41.876;23.474;2023-07-30T05:18:24;2.90;;;2.70;;
19388;SDS011;9830;41.876;23.474;2023-07-30T05:20:50;17.90;;;2.65;;
19388;SDS011;9830;41.876;23.474;2023-07-30T05:23:15;2.35;;;2.20;;
19388;SDS011;9830;41.876;23.474;2023-07-30T05:25:41;3.38;;;2.40;;
19388;SDS011;9830;41.876;23.474;2023-07-30T05:28:08;2.55;;;2.33;;
19388;SDS011;9830;41.876;23.474;2023-07-30T05:30:33;2.05;;;1.88;;
19388;SDS011;9830;41.876;23.474;2023-07-30T05:32:59;3.33;;;2.55;;
19388;SDS011;9830;41.876;23.474;2023-07-30T05:35:25;4.85;;;3.40;;
19388;SDS011;9830;41.876;23.474;2023-07-30T05:37:50;1.70;;;1.60;;
19388;SDS011;9830;41.876;23.474;2023-07-30T05:40:17;1.42;;;1.33;;
19388;SDS011;9830;41.876;23.474;2023-07-30T05:42:42;1.80;;;1.70;;
19388;SDS011;9830;41.876;23.474;2023-07-30T05:45:08;2.53;;;2.33;;
19388;SDS011;9830;41.876;23.474;2023-07-30T05:47:34;1.20;;;1.20;;
19388;SDS011;9830;41.876;23.474;2023-07-30T05:50:01;6.38;;;2.53;;
19388;SDS011;9830;41.876;23.474;2023-07-30T05:52:27;2.75;;;2.55;;
19388;SDS011;9830;41.876;23.474;2023-07-30T05:54:52;1.75;;;1.40;;
19388;SDS011;9830;41.876;23.474;2023-07-30T05:57:18;2.28;;;2.00;;
19388;SDS011;9830;41.876;23.474;2023-07-30T05:59:44;1.23;;;1.15;;
19388;SDS011;9830;41.876;23.474;2023-07-30T06:02:09;1.73;;;1.60;;
19388;SDS011;9830;41.876;23.474;2023-07-30T06:04:35;3.22;;;1.55;;
19388;SDS011;9830;41.876;23.474;2023-07-30T06:07:01;1.33;;;1.33;;
19388;SDS011;9830;41.876;23.474;2023-07-30T06:09:28;2.53;;;1.85;;
19388;SDS011;9830;41.876;23.474;2023-07-30T06:11:56;3.72;;;2.38;;
19388;SDS011;9830;41.876;23.474;2023-07-30T06:14:22;1.30;;;1.20;;
19388;SDS011;9830;41.876;23.474;2023-07-30T06:16:48;1.17;;;1.17;;
19388;SDS011;9830;41.876;23.474;2023-07-30T06:19:14;1.00;;;1.00;;
19388;SDS011;9830;41.876;23.474;2023-07-30T06:21:40;1.50;;;1.40;;
19388;SDS011;9830;41.876;23.474;2023-07-30T06:24:05;0.63;;;0.52;;
19388;SDS011;9830;41.876;23.474;2023-07-30T06:26:31;1.00;;;1.00;;
19388;SDS011;9830;41.876;23.474;2023-07-30T06:28:57;3.40;;;2.00;;
19388;SDS011;9830;41.876;23.474;2023-07-30T06:31:23;1.40;;;1.35;;
19388;SDS011;9830;41.876;23.474;2023-07-30T06:33:49;1.48;;;1.38;;
19388;SDS011;9830;41.876;23.474;2023-07-30T06:36:15;1.05;;;1.05;;
19388;SDS011;9830;41.876;23.474;2023-07-30T06:38:40;1.13;;;1.13;;
19388;SDS011;9830;41.876;23.474;2023-07-30T06:41:06;0.88;;;0.88;;
19388;SDS011;9830;41.876;23.474;2023-07-30T06:43:31;1.33;;;0.93;;
19388;SDS011;9830;41.876;23.474;2023-07-30T06:45:57;1.13;;;1.13;;
19388;SDS011;9830;41.876;23.474;2023-07-30T06:48:23;0.70;;;0.70;;
19388;SDS011;9830;41.876;23.474;2023-07-30T06:50:48;1.15;;;1.05;;
19388;SDS011;9830;41.876;23.474;2023-07-30T06:53:14;0.93;;;0.93;;
19388;SDS011;9830;41.876;23.474;2023-07-30T06:55:40;1.13;;;1.02;;
19388;SDS011;9830;41.876;23.474;2023-07-30T06:58:05;0.85;;;0.80;;
19388;SDS011;9830;41.876;23.474;2023-07-30T07:00:31;0.77;;;0.77;;
19388;SDS011;9830;41.876;23.474;2023-07-30T07:02:57;1.70;;;1.40;;
19388;SDS011;9830;41.876;23.474;2023-07-30T07:05:22;1.52;;;1.10;;
19388;SDS011;9830;41.876;23.474;2023-07-30T07:07:48;1.13;;;1.13;;
19388;SDS011;9830;41.876;23.474;2023-07-30T07:10:14;0.93;;;0.93;;
19388;SDS011;9830;41.876;23.474;2023-07-30T07:12:40;1.23;;;1.00;;
19388;SDS011;9830;41.876;23.474;2023-07-30T07:15:06;0.63;;;0.63;;
19388;SDS011;9830;41.876;23.474;2023-07-30T07:17:32;1.23;;;1.13;;
19388;SDS011;9830;41.876;23.474;2023-07-30T07:19:58;0.52;;;0.52;;
19388;SDS011;9830;41.876;23.474;2023-07-30T07:22:24;0.90;;;0.90;;
19388;SDS011;9830;41.876;23.474;2023-07-30T07:24:53;1.48;;;1.08;;
19388;SDS011;9830;41.876;23.474;2023-07-30T07:27:19;0.70;;;0.70;;
19388;SDS011;9830;41.876;23.474;2023-07-30T07:29:44;0.60;;;0.60;;
19388;SDS011;9830;41.876;23.474;2023-07-30T07:32:10;0.80;;;0.80;;
19388;SDS011;9830;41.876;23.474;2023-07-30T07:34:36;1.17;;;1.15;;
19388;SDS011;9830;41.876;23.474;2023-07-30T07:37:02;0.75;;;0.75;;
19388;SDS011;9830;41.876;23.474;2023-07-30T07:39:28;0.70;;;0.70;;
19388;SDS011;9830;41.876;23.474;2023-07-30T07:41:54;0.77;;;0.77;;
19388;SDS011;9830;41.876;23.474;2023-07-30T07:44:20;0.95;;;0.95;;
19388;SDS011;9830;41.876;23.474;2023-07-30T07:46:47;0.55;;;0.55;;
19388;SDS011;9830;41.876;23.474;2023-07-30T07:49:13;0.85;;;0.85;;
19388;SDS011;9830;41.876;23.474;2023-07-30T07:51:38;0.98;;;0.98;;
19388;SDS011;9830;41.876;23.474;2023-07-30T07:54:04;0.95;;;0.85;;
19388;SDS011;9830;41.876;23.474;2023-07-30T07:56:31;0.93;;;0.90;;
19388;SDS011;9830;41.876;23.474;2023-07-30T07:58:57;0.85;;;0.85;;
19388;SDS011;9830;41.876;23.474;2023-07-30T08:01:23;1.13;;;1.13;;
19388;SDS011;9830;41.876;23.474;2023-07-30T08:03:48;1.10;;;1.10;;
19388;SDS011;9830;41.876;23.474;2023-07-30T08:06:14;1.00;;;1.00;;
19388;SDS011;9830;41.876;23.474;2023-07-30T08:08:40;0.85;;;0.85;;
19388;SDS011;9830;41.876;23.474;2023-07-30T08:11:06;1.52;;;1.33;;
19388;SDS011;9830;41.876;23.474;2023-07-30T08:13:33;1.25;;;1.23;;
19388;SDS011;9830;41.876;23.474;2023-07-30T08:15:59;0.82;;;0.82;;
19388;SDS011;9830;41.876;23.474;2023-07-30T08:18:26;1.35;;;1.35;;
19388;SDS011;9830;41.876;23.474;2023-07-30T08:20:52;1.02;;;1.00;;
19388;SDS011;9830;41.876;23.474;2023-07-30T08:23:18;1.00;;;1.00;;
19388;SDS011;9830;41.876;23.474;2023-07-30T08:25:44;0.95;;;0.95;;
19388;SDS011;9830;41.876;23.474;2023-07-30T08:28:09;1.10;;;1.10;;
19388;SDS011;9830;41.876;23.474;2023-07-30T08:30:35;1.65;;;1.55;;
19388;SDS011;9830;41.876;23.474;2023-07-30T08:33:01;1.17;;;1.17;;
19388;SDS011;9830;41.876;23.474;2023-07-30T08:35:26;1.45;;;1.38;;
19388;SDS011;9830;41.876;23.474;2023-07-30T08:37:53;0.82;;;0.82;;
19388;SDS011;9830;41.876;23.474;2023-07-30T08:40:20;1.05;;;1.05;;
19388;SDS011;9830;41.876;23.474;2023-07-30T08:42:48;1.45;;;1.35;;
19388;SDS011;9830;41.876;23.474;2023-07-30T08:45:17;1.00;;;1.00;;
19388;SDS011;9830;41.876;23.474;2023-07-30T08:47:43;1.10;;;1.10;;
19388;SDS011;9830;41.876;23.474;2023-07-30T08:50:10;2.30;;;1.65;;
19388;SDS011;9830;41.876;23.474;2023-07-30T08:52:36;1.10;;;1.10;;
19388;SDS011;9830;41.876;23.474;2023-07-30T08:55:06;1.30;;;1.30;;
19388;SDS011;9830;41.876;23.474;2023-07-30T08:57:32;1.55;;;1.48;;
19388;SDS011;9830;41.876;23.474;2023-07-30T09:05:12;1.25;;;1.25;;
19388;SDS011;9830;41.876;23.474;2023-07-30T09:07:38;1.58;;;1.50;;
19388;SDS011;9830;41.876;23.474;2023-07-30T09:10:04;1.70;;;1.63;;
19388;SDS011;9830;41.876;23.474;2023-07-30T09:12:33;1.30;;;1.30;;
19388;SDS011;9830;41.876;23.474;2023-07-30T09:15:03;1.20;;;1.20;;
19388;SDS011;9830;41.876;23.474;2023-07-30T09:17:30;1.48;;;1.48;;
19388;SDS011;9830;41.876;23.474;2023-07-30T09:19:58;1.02;;;1.02;;
19388;SDS011;9830;41.876;23.474;2023-07-30T09:22:29;1.42;;;1.42;;
19388;SDS011;9830;41.876;23.474;2023-07-30T09:25:03;1.50;;;1.50;;
19388;SDS011;9830;41.876;23.474;2023-07-30T09:27:30;1.08;;;1.08;;
19388;SDS011;9830;41.876;23.474;2023-07-30T09:29:57;1.08;;;1.08;;
19388;SDS011;9830;41.876;23.474;2023-07-30T09:32:25;2.25;;;1.23;;
19388;SDS011;9830;41.876;23.474;2023-07-30T09:34:52;1.30;;;1.30;;
19388;SDS011;9830;41.876;23.474;2023-07-30T09:37:18;1.33;;;1.33;;
19388;SDS011;9830;41.876;23.474;2023-07-30T09:39:43;0.88;;;0.88;;
19388;SDS011;9830;41.876;23.474;2023-07-30T09:42:12;0.70;;;0.70;;
19388;SDS011;9830;41.876;23.474;2023-07-30T09:44:38;1.13;;;1.13;;
19388;SDS011;9830;41.876;23.474;2023-07-30T09:47:04;0.70;;;0.70;;
19388;SDS011;9830;41.876;23.474;2023-07-30T09:49:34;0.82;;;0.82;;
19388;SDS011;9830;41.876;23.474;2023-07-30T09:52:04;1.50;;;1.40;;
19388;SDS011;9830;41.876;23.474;2023-07-30T09:54:33;0.57;;;0.57;;
19388;SDS011;9830;41.876;23.474;2023-07-30T09:57:00;0.80;;;0.80;;
19388;SDS011;9830;41.876;23.474;2023-07-30T09:59:26;1.30;;;1.30;;
19388;SDS011;9830;41.876;23.474;2023-07-30T10:01:52;1.02;;;0.95;;
19388;SDS011;9830;41.876;23.474;2023-07-30T10:04:20;0.73;;;0.73;;
19388;SDS011;9830;41.876;23.474;2023-07-30T10:06:55;0.98;;;0.98;;
19388;SDS011;9830;41.876;23.474;2023-07-30T10:09:23;0.77;;;0.77;;
19388;SDS011;9830;41.876;23.474;2023-07-30T10:11:53;1.05;;;0.82;;
19388;SDS011;9830;41.876;23.474;2023-07-30T10:14:21;0.47;;;0.47;;
19388;SDS011;9830;41.876;23.474;2023-07-30T10:16:52;0.82;;;0.55;;
19388;SDS011;9830;41.876;23.474;2023-07-30T10:19:22;0.38;;;0.38;;
19388;SDS011;9830;41.876;23.474;2023-07-30T10:21:49;5.75;;;2.85;;
19388;SDS011;9830;41.876;23.474;2023-07-30T10:24:15;1.08;;;0.98;;
19388;SDS011;9830;41.876;23.474;2023-07-30T10:26:41;1.17;;;1.10;;
19388;SDS011;9830;41.876;23.474;2023-07-30T10:31:52;1.15;;;1.05;;
19388;SDS011;9830;41.876;23.474;2023-07-30T10:34:19;0.55;;;0.55;;
19388;SDS011;9830;41.876;23.474;2023-07-30T10:36:46;0.55;;;0.55;;
19388;SDS011;9830;41.876;23.474;2023-07-30T10:39:18;0.63;;;0.63;;
19388;SDS011;9830;41.876;23.474;2023-07-30T10:41:55;0.75;;;0.75;;
19388;SDS011;9830;41.876;23.474;2023-07-30T10:46:56;0.88;;;0.88;;
19388;SDS011;9830;41.876;23.474;2023-07-30T10:49:23;1.00;;;0.88;;
19388;SDS011;9830;41.876;23.474;2023-07-30T10:51:59;0.85;;;0.85;;
19388;SDS011;9830;41.876;23.474;2023-07-30T10:54:24;2.83;;;1.02;;
19388;SDS011;9830;41.876;23.474;2023-07-30T10:56:50;0.50;;;0.50;;
19388;SDS011;9830;41.876;23.474;2023-07-30T10:59:16;0.80;;;0.80;;
19388;SDS011;9830;41.876;23.474;2023-07-30T11:01:44;0.50;;;0.50;;
19388;SDS011;9830;41.876;23.474;2023-07-30T11:06:44;0.60;;;0.60;;
19388;SDS011;9830;41.876;23.474;2023-07-30T11:09:20;1.13;;;1.05;;
19388;SDS011;9830;41.876;23.474;2023-07-30T11:11:47;1.48;;;1.38;;
19388;SDS011;9830;41.876;23.474;2023-07-30T11:14:14;0.88;;;0.88;;
19388;SDS011;9830;41.876;23.474;2023-07-30T11:16:47;0.25;;;0.25;;
19388;SDS011;9830;41.876;23.474;2023-07-30T11:19:16;0.57;;;0.57;;
19388;SDS011;9830;41.876;23.474;2023-07-30T11:21:46;0.68;;;0.68;;
19388;SDS011;9830;41.876;23.474;2023-07-30T11:24:12;0.57;;;0.57;;
19388;SDS011;9830;41.876;23.474;2023-07-30T11:26:38;0.47;;;0.47;;
19388;SDS011;9830;41.876;23.474;2023-07-30T11:29:16;4.57;;;0.90;;
19388;SDS011;9830;41.876;23.474;2023-07-30T11:31:43;0.65;;;0.65;;
19388;SDS011;9830;41.876;23.474;2023-07-30T11:34:10;1.13;;;0.85;;
19388;SDS011;9830;41.876;23.474;2023-07-30T11:36:37;0.88;;;0.88;;
19388;SDS011;9830;41.876;23.474;2023-07-30T11:39:03;0.65;;;0.65;;
19388;SDS011;9830;41.876;23.474;2023-07-30T11:41:29;0.80;;;0.80;;
19388;SDS011;9830;41.876;23.474;2023-07-30T11:43:55;0.82;;;0.82;;
19388;SDS011;9830;41.876;23.474;2023-07-30T11:46:21;0.47;;;0.47;;
19388;SDS011;9830;41.876;23.474;2023-07-30T11:48:48;0.55;;;0.55;;
19388;SDS011;9830;41.876;23.474;2023-07-30T11:53:56;2.05;;;0.88;;
19388;SDS011;9830;41.876;23.474;2023-07-30T11:56:24;0.52;;;0.40;;
19388;SDS011;9830;41.876;23.474;2023-07-30T11:59:12;0.75;;;0.75;;
19388;SDS011;9830;41.876;23.474;2023-07-30T12:01:37;1.58;;;1.15;;
19388;SDS011;9830;41.876;23.474;2023-07-30T12:04:03;0.63;;;0.63;;
19388;SDS011;9830;41.876;23.474;2023-07-30T12:06:40;0.60;;;0.60;;
19388;SDS011;9830;41.876;23.474;2023-07-30T12:09:17;1.15;;;0.73;;
19388;SDS011;9830;41.876;23.474;2023-07-30T12:14:18;0.93;;;0.82;;
19388;SDS011;9830;41.876;23.474;2023-07-30T12:16:45;1.25;;;0.68;;
19388;SDS011;9830;41.876;23.474;2023-07-30T12:19:10;1.00;;;0.90;;
19388;SDS011;9830;41.876;23.474;2023-07-30T12:21:36;0.60;;;0.60;;
19388;SDS011;9830;41.876;23.474;2023-07-30T12:24:02;0.52;;;0.52;;
19388;SDS011;9830;41.876;23.474;2023-07-30T12:26:28;0.65;;;0.65;;
19388;SDS011;9830;41.876;23.474;2023-07-30T12:28:54;0.57;;;0.57;;
19388;SDS011;9830;41.876;23.474;2023-07-30T12:31:20;1.30;;;1.05;;
19388;SDS011;9830;41.876;23.474;2023-07-30T12:33:46;0.90;;;0.88;;
19388;SDS011;9830;41.876;23.474;2023-07-30T12:36:11;0.80;;;0.80;;
19388;SDS011;9830;41.876;23.474;2023-07-30T12:38:37;0.47;;;0.47;;
19388;SDS011;9830;41.876;23.474;2023-07-30T12:41:03;2.08;;;1.23;;
19388;SDS011;9830;41.876;23.474;2023-07-30T12:43:28;1.23;;;1.13;;
19388;SDS011;9830;41.876;23.474;2023-07-30T12:45:54;0.50;;;0.50;;
19388;SDS011;9830;41.876;23.474;2023-07-30T12:48:20;1.75;;;0.90;;
19388;SDS011;9830;41.876;23.474;2023-07-30T12:50:45;0.77;;;0.77;;
19388;SDS011;9830;41.876;23.474;2023-07-30T12:53:11;0.63;;;0.63;;
19388;SDS011;9830;41.876;23.474;2023-07-30T12:55:37;0.85;;;0.70;;
19388;SDS011;9830;41.876;23.474;2023-07-30T12:58:03;1.17;;;1.13;;
19388;SDS011;9830;41.876;23.474;2023-07-30T13:00:29;1.08;;;1.08;;
19388;SDS011;9830;41.876;23.474;2023-07-30T13:02:55;2.45;;;1.38;;
19388;SDS011;9830;41.876;23.474;2023-07-30T13:05:22;0.82;;;0.82;;
19388;SDS011;9830;41.876;23.474;2023-07-30T13:07:47;0.57;;;0.57;;
19388;SDS011;9830;41.876;23.474;2023-07-30T13:10:13;1.05;;;1.05;;
19388;SDS011;9830;41.876;23.474;2023-07-30T13:12:40;0.70;;;0.70;;
19388;SDS011;9830;41.876;23.474;2023-07-30T13:15:06;0.52;;;0.45;;
19388;SDS011;9830;41.876;23.474;2023-07-30T13:17:32;1.15;;;1.08;;
19388;SDS011;9830;41.876;23.474;2023-07-30T13:19:58;1.17;;;1.08;;
19388;SDS011;9830;41.876;23.474;2023-07-30T13:22:23;1.73;;;1.00;;
19388;SDS011;9830;41.876;23.474;2023-07-30T13:24:50;0.68;;;0.43;;
19388;SDS011;9830;41.876;23.474;2023-07-30T13:27:16;1.42;;;1.10;;
19388;SDS011;9830;41.876;23.474;2023-07-30T13:29:42;0.88;;;0.88;;
19388;SDS011;9830;41.876;23.474;2023-07-30T13:32:08;1.02;;;1.02;;
19388;SDS011;9830;41.876;23.474;2023-07-30T13:34:34;1.15;;;1.00;;
19388;SDS011;9830;41.876;23.474;2023-07-30T13:36:59;0.43;;;0.43;;
19388;SDS011;9830;41.876;23.474;2023-07-30T13:39:25;1.60;;;1.40;;
19388;SDS011;9830;41.876;23.474;2023-07-30T13:41:51;1.52;;;0.85;;
19388;SDS011;9830;41.876;23.474;2023-07-30T13:44:16;0.50;;;0.50;;
19388;SDS011;9830;41.876;23.474;2023-07-30T13:46:42;0.65;;;0.65;;
19388;SDS011;9830;41.876;23.474;2023-07-30T13:49:08;1.55;;;1.05;;
19388;SDS011;9830;41.876;23.474;2023-07-30T13:51:34;0.60;;;0.60;;
19388;SDS011;9830;41.876;23.474;2023-07-30T13:53:59;7.22;;;0.98;;
19388;SDS011;9830;41.876;23.474;2023-07-30T13:56:26;0.85;;;0.85;;
19388;SDS011;9830;41.876;23.474;2023-07-30T13:58:53;1.30;;;1.30;;
19388;SDS011;9830;41.876;23.474;2023-07-30T14:01:18;0.70;;;0.70;;
19388;SDS011;9830;41.876;23.474;2023-07-30T14:03:44;1.33;;;1.10;;
19388;SDS011;9830;41.876;23.474;2023-07-30T14:06:10;1.50;;;1.40;;
19388;SDS011;9830;41.876;23.474;2023-07-30T14:08:36;0.70;;;0.70;;
19388;SDS011;9830;41.876;23.474;2023-07-30T14:11:02;1.00;;;1.00;;
19388;SDS011;9830;41.876;23.474;2023-07-30T14:13:27;1.00;;;1.00;;
19388;SDS011;9830;41.876;23.474;2023-07-30T14:15:53;2.05;;;1.85;;
19388;SDS011;9830;41.876;23.474;2023-07-30T14:18:19;0.50;;;0.50;;
19388;SDS011;9830;41.876;23.474;2023-07-30T14:20:45;0.73;;;0.73;;
19388;SDS011;9830;41.876;23.474;2023-07-30T14:23:11;0.88;;;0.88;;
19388;SDS011;9830;41.876;23.474;2023-07-30T14:25:37;0.75;;;0.75;;
19388;SDS011;9830;41.876;23.474;2023-07-30T14:28:03;7.88;;;0.80;;
19388;SDS011;9830;41.876;23.474;2023-07-30T14:30:29;0.65;;;0.65;;
19388;SDS011;9830;41.876;23.474;2023-07-30T14:32:55;1.20;;;1.10;;
19388;SDS011;9830;41.876;23.474;2023-07-30T14:35:21;0.80;;;0.80;;
19388;SDS011;9830;41.876;23.474;2023-07-30T14:37:47;0.80;;;0.80;;
19388;SDS011;9830;41.876;23.474;2023-07-30T14:40:12;1.27;;;1.17;;
19388;SDS011;9830;41.876;23.474;2023-07-30T14:42:38;0.80;;;0.80;;
19388;SDS011;9830;41.876;23.474;2023-07-30T14:45:05;0.73;;;0.73;;
19388;SDS011;9830;41.876;23.474;2023-07-30T14:47:31;0.82;;;0.82;;
19388;SDS011;9830;41.876;23.474;2023-07-30T14:49:58;0.77;;;0.75;;
19388;SDS011;9830;41.876;23.474;2023-07-30T14:52:24;1.58;;;1.48;;
19388;SDS011;9830;41.876;23.474;2023-07-30T14:54:49;1.58;;;1.17;;
19388;SDS011;9830;41.876;23.474;2023-07-30T14:57:16;1.08;;;0.70;;
19388;SDS011;9830;41.876;23.474;2023-07-30T14:59:41;1.00;;;1.00;;
19388;SDS011;9830;41.876;23.474;2023-07-30T15:02:07;0.60;;;0.60;;